createdAt,value
2023-05-02T00:00:54.876Z,12.16
2023-05-02T00:03:21.873Z,12.20
2023-05-02T00:05:48.473Z,11.80
2023-05-02T00:08:20.772Z,11.95
2023-05-02T00:10:47.308Z,11.89
2023-05-02T00:13:13.767Z,11.96
2023-05-02T00:15:40.203Z,11.94
2023-05-02T00:18:06.783Z,11.97
2023-05-02T00:20:33.327Z,11.80
2023-05-02T00:22:59.761Z,11.87
2023-05-02T00:25:26.204Z,11.86
2023-05-02T00:27:52.972Z,11.80
2023-05-02T00:30:21.169Z,11.70
2023-05-02T00:32:47.831Z,11.66
2023-05-02T00:35:14.307Z,11.75
2023-05-02T00:37:40.915Z,11.57
2023-05-02T00:40:08.222Z,11.58
2023-05-02T00:42:36.565Z,11.60
2023-05-02T00:45:06.586Z,11.62
2023-05-02T00:47:38.925Z,11.41
2023-05-02T00:50:06.136Z,11.44
2023-05-02T00:52:33.357Z,11.31
2023-05-02T00:55:01.592Z,11.26
2023-05-02T00:57:28.021Z,11.34
2023-05-02T00:59:57.538Z,11.10
2023-05-02T01:03:02.765Z,11.28
2023-05-02T01:05:44.700Z,11.13
2023-05-02T01:08:26.048Z,11.12
2023-05-02T01:11:07.005Z,10.93
2023-05-02T01:13:35.100Z,10.97
2023-05-02T01:16:03.498Z,11.18
2023-05-02T01:18:34.001Z,11.24
2023-05-02T01:21:07.933Z,11.20
2023-05-02T01:24:00.712Z,11.40
2023-05-02T01:26:36.586Z,11.50
2023-05-02T01:29:07.166Z,11.43
2023-05-02T01:31:39.607Z,11.60
2023-05-02T01:34:10.351Z,11.63
2023-05-02T01:51:06.694Z,10.72
2023-05-02T01:53:35.600Z,11.12
2023-05-02T01:56:03.153Z,11.25
2023-05-02T01:58:30.920Z,11.36
2023-05-02T02:01:01.038Z,11.46
2023-05-02T02:03:31.139Z,11.50
2023-05-02T02:05:59.394Z,11.61
2023-05-02T02:08:26.312Z,11.59
2023-05-02T02:10:57.449Z,11.68
2023-05-02T02:13:33.856Z,11.38
2023-05-02T02:16:04.038Z,11.66
2023-05-02T02:18:36.931Z,11.60
2023-05-02T02:21:06.772Z,11.73
2023-05-02T02:23:34.677Z,11.53
2023-05-02T02:26:02.890Z,11.62
2023-05-02T02:28:29.382Z,11.68
2023-05-02T02:30:56.255Z,11.66
2023-05-02T02:33:28.874Z,11.57
2023-05-02T02:36:01.850Z,11.65
2023-05-02T02:38:42.219Z,11.78
2023-05-02T02:41:33.111Z,11.54
2023-05-02T02:44:37.078Z,11.49
2023-05-02T02:47:10.652Z,11.26
2023-05-02T02:49:55.476Z,11.52
2023-05-02T02:52:37.509Z,11.75
2023-05-02T02:55:20.822Z,11.57
2023-05-02T02:58:20.092Z,11.66
2023-05-02T03:00:47.556Z,11.66
2023-05-02T03:03:18.885Z,11.59
2023-05-02T03:05:46.273Z,11.52
2023-05-02T03:08:13.764Z,11.50
2023-05-02T03:10:40.216Z,11.29
2023-05-02T03:13:06.640Z,11.52
2023-05-02T03:15:51.434Z,11.58
2023-05-02T03:18:19.260Z,11.38
2023-05-02T03:20:46.228Z,11.50
2023-05-02T03:23:12.584Z,11.54
2023-05-02T03:25:39.088Z,11.31
2023-05-02T03:28:05.549Z,11.34
2023-05-02T03:30:35.595Z,11.41
2023-05-02T03:33:04.793Z,11.20
2023-05-02T03:35:31.276Z,11.03
2023-05-02T03:37:57.727Z,11.36
2023-05-02T03:40:24.232Z,11.20
2023-05-02T03:42:53.625Z,11.38
2023-05-02T03:45:20.068Z,11.12
2023-05-02T03:47:46.557Z,11.26
2023-05-02T03:50:13.101Z,11.30
2023-05-02T03:52:39.549Z,11.14
2023-05-02T03:55:07.866Z,11.27
2023-05-02T03:57:34.512Z,11.22
2023-05-02T04:00:01.232Z,11.20
2023-05-02T04:02:28.228Z,11.20
2023-05-02T04:04:54.678Z,11.28
2023-05-02T04:07:21.321Z,10.92
2023-05-02T04:09:47.788Z,10.76
2023-05-02T04:12:15.847Z,10.90
2023-05-02T04:14:42.279Z,10.88
2023-05-02T04:17:08.940Z,10.95
2023-05-02T04:19:35.428Z,11.08
2023-05-02T04:22:03.446Z,10.91
2023-05-02T04:24:29.887Z,11.05
2023-05-02T04:26:56.293Z,11.10
2023-05-02T04:29:22.703Z,11.19
2023-05-02T04:31:49.476Z,10.95
2023-05-02T04:34:15.973Z,11.32
2023-05-02T04:36:42.403Z,11.09
2023-05-02T04:39:08.869Z,11.21
2023-05-02T04:41:35.450Z,11.26
2023-05-02T04:44:01.919Z,11.36
2023-05-02T04:46:28.465Z,11.48
2023-05-02T04:48:55.014Z,11.33
2023-05-02T04:51:21.510Z,11.52
2023-05-02T04:53:47.942Z,11.45
2023-05-02T04:56:14.479Z,11.06
2023-05-02T04:58:41.011Z,11.25
2023-05-02T05:01:07.921Z,11.18
2023-05-02T05:03:34.718Z,11.31
2023-05-02T05:06:02.460Z,11.60
2023-05-02T05:08:29.009Z,11.55
2023-05-02T05:10:55.511Z,11.51
2023-05-02T05:13:21.994Z,11.70
2023-05-02T05:15:48.572Z,11.45
2023-05-02T05:18:15.200Z,11.71
2023-05-02T05:20:41.744Z,11.65
2023-05-02T05:23:08.208Z,11.59
2023-05-02T05:25:34.704Z,11.60
2023-05-02T05:28:02.429Z,11.67
2023-05-02T05:30:33.180Z,11.63
2023-05-02T05:33:02.093Z,11.58
2023-05-02T05:35:28.791Z,11.31
2023-05-02T05:37:55.389Z,11.62
2023-05-02T05:40:22.374Z,11.78
2023-05-02T05:42:49.292Z,11.83
2023-05-02T05:45:17.388Z,11.71
2023-05-02T05:47:43.951Z,11.92
2023-05-02T05:50:13.363Z,11.97
2023-05-02T05:52:39.943Z,11.58
2023-05-02T05:55:07.390Z,11.65
2023-05-02T05:57:33.836Z,12.07
2023-05-02T06:00:11.238Z,12.03
2023-05-02T06:02:38.054Z,12.19
2023-05-02T06:05:04.764Z,12.19
2023-05-02T06:07:31.307Z,11.89
2023-05-02T06:09:58.426Z,11.97
2023-05-02T06:12:25.732Z,12.14
2023-05-02T06:14:52.911Z,12.19
2023-05-02T06:17:19.501Z,12.31
2023-05-02T06:19:46.017Z,12.46
2023-05-02T06:22:13.704Z,12.09
2023-05-02T06:24:40.253Z,12.00
2023-05-02T06:27:09.026Z,11.99
2023-05-02T06:29:35.832Z,12.40
2023-05-02T06:32:02.458Z,12.24
2023-05-02T06:34:29.063Z,12.14
2023-05-02T06:36:59.029Z,11.98
2023-05-02T06:39:25.781Z,12.19
2023-05-02T06:41:56.558Z,12.10
2023-05-02T06:44:23.079Z,12.31
2023-05-02T06:46:50.275Z,12.60
2023-05-02T06:49:17.026Z,12.36
2023-05-02T06:51:43.519Z,12.77
2023-05-02T06:54:10.008Z,12.60
2023-05-02T06:56:36.593Z,13.02
2023-05-02T06:59:03.056Z,13.24
2023-05-02T07:01:29.605Z,12.94
2023-05-02T07:03:56.164Z,12.75
2023-05-02T07:06:22.689Z,13.22
2023-05-02T07:08:49.122Z,12.91
2023-05-02T07:11:15.699Z,13.15
2023-05-02T07:13:42.656Z,13.30
2023-05-02T07:16:09.198Z,12.96
2023-05-02T07:18:36.525Z,13.77
2023-05-02T07:21:03.063Z,13.75
2023-05-02T07:23:29.510Z,13.41
2023-05-02T07:25:55.943Z,13.78
2023-05-02T07:28:22.665Z,14.13
2023-05-02T07:30:49.140Z,14.80
2023-05-02T07:33:15.787Z,14.02
2023-05-02T07:35:42.888Z,14.19
2023-05-02T07:38:09.358Z,14.60
2023-05-02T07:40:35.826Z,14.96
2023-05-02T07:43:02.388Z,15.23
2023-05-02T07:45:28.887Z,14.96
2023-05-02T07:47:55.346Z,14.83
2023-05-02T07:50:22.403Z,14.28
2023-05-02T07:52:48.859Z,14.05
2023-05-02T07:55:15.473Z,13.85
2023-05-02T07:57:50.903Z,13.88
2023-05-02T08:00:17.976Z,13.94
2023-05-02T08:02:45.718Z,13.92
2023-05-02T08:05:12.516Z,14.22
2023-05-02T08:07:41.568Z,14.02
2023-05-02T08:10:08.798Z,13.95
2023-05-02T08:12:41.117Z,13.54
2023-05-02T08:15:09.266Z,13.72
2023-05-02T08:17:35.802Z,13.52
2023-05-02T08:20:02.698Z,13.41
2023-05-02T08:22:29.419Z,13.28
2023-05-02T08:24:55.888Z,13.13
2023-05-02T08:27:22.352Z,13.33
2023-05-02T08:29:48.948Z,13.00
2023-05-02T08:32:15.458Z,13.22
2023-05-02T08:34:42.194Z,13.48
2023-05-02T08:37:10.255Z,13.55
2023-05-02T08:39:36.737Z,13.62
2023-05-02T08:42:08.848Z,13.50
2023-05-02T08:44:36.442Z,13.10
2023-05-02T08:47:03.645Z,13.19
2023-05-02T08:49:32.151Z,13.51
2023-05-02T08:52:00.466Z,13.54
2023-05-02T08:54:27.356Z,13.44
2023-05-02T08:56:54.578Z,13.54
2023-05-02T08:59:21.225Z,13.65
2023-05-02T09:01:52.710Z,13.70
2023-05-02T09:04:24.416Z,13.41
2023-05-02T09:06:51.137Z,13.36
2023-05-02T09:09:19.090Z,13.35
2023-05-02T09:11:47.398Z,13.22
2023-05-02T09:14:15.728Z,13.12
2023-05-02T09:16:42.212Z,13.19
2023-05-02T09:19:09.392Z,13.33
2023-05-02T09:21:41.245Z,13.09
2023-05-02T09:24:18.812Z,13.23
2023-05-02T09:26:57.894Z,13.39
2023-05-02T09:29:24.359Z,13.30
2023-05-02T09:31:56.373Z,13.41
2023-05-02T09:34:23.937Z,13.42
2023-05-02T09:36:52.202Z,13.44
2023-05-02T09:39:23.026Z,13.30
2023-05-02T09:41:52.163Z,13.34
2023-05-02T09:44:19.704Z,13.49
2023-05-02T09:46:48.264Z,13.59
2023-05-02T09:49:18.711Z,13.66
2023-05-02T09:51:49.135Z,13.75
2023-05-02T09:54:36.332Z,13.51
2023-05-02T09:57:03.820Z,13.31
2023-05-02T09:59:30.748Z,13.64
2023-05-02T10:02:03.249Z,13.54
2023-05-02T10:04:32.900Z,13.58
2023-05-02T10:07:01.689Z,13.21
2023-05-02T10:09:35.097Z,13.50
2023-05-02T10:12:08.204Z,13.40
2023-05-02T10:14:41.551Z,13.13
2023-05-02T10:17:21.534Z,13.21
2023-05-02T10:19:59.173Z,13.10
2023-05-02T10:22:26.589Z,12.94
2023-05-02T10:24:53.779Z,12.81
2023-05-02T10:27:20.379Z,12.78
2023-05-02T10:29:47.429Z,12.75
2023-05-02T10:32:17.197Z,12.52
2023-05-02T10:34:44.109Z,12.00
2023-05-02T10:37:12.478Z,12.06
2023-05-02T10:39:39.265Z,12.22
2023-05-02T10:42:06.697Z,12.31
2023-05-02T10:44:40.234Z,11.88
2023-05-02T10:47:22.532Z,11.87
2023-05-02T10:49:57.129Z,11.72
2023-05-02T10:52:33.050Z,11.81
2023-05-02T10:55:21.612Z,12.26
2023-05-02T10:57:57.251Z,11.92
2023-05-02T11:00:26.067Z,12.03
2023-05-02T11:02:52.946Z,11.59
2023-05-02T11:05:27.168Z,11.87
2023-05-02T11:08:15.772Z,12.12
2023-05-02T11:10:42.783Z,11.95
2023-05-02T11:13:12.391Z,11.83
2023-05-02T11:15:41.956Z,12.29
2023-05-02T11:18:09.807Z,11.77
2023-05-02T11:20:42.253Z,11.45
2023-05-02T11:23:26.998Z,11.39
2023-05-02T11:25:55.847Z,11.77
2023-05-02T11:28:34.545Z,11.95
2023-05-02T11:31:01.055Z,11.80
2023-05-02T11:33:40.037Z,11.75
2023-05-02T11:36:06.589Z,12.16
2023-05-02T11:38:38.513Z,12.50
2023-05-02T11:41:07.730Z,11.66
2023-05-02T11:43:34.907Z,11.97
2023-05-02T11:46:02.545Z,11.93
2023-05-02T11:48:31.105Z,12.31
2023-05-02T11:51:02.433Z,12.34
2023-05-02T11:53:29.783Z,11.90
2023-05-02T11:56:01.526Z,12.26
2023-05-02T11:58:30.329Z,11.54
2023-05-02T12:00:57.377Z,11.49
2023-05-02T12:03:27.704Z,12.26
2023-05-02T12:05:54.759Z,11.84
2023-05-02T12:08:26.471Z,11.93
2023-05-02T12:10:56.793Z,11.79
2023-05-02T12:13:25.639Z,12.60
2023-05-02T12:15:53.756Z,12.77
2023-05-02T12:18:23.951Z,12.90
2023-05-02T12:20:52.725Z,12.22
2023-05-02T12:23:24.718Z,12.27
2023-05-02T12:25:51.430Z,12.22
2023-05-02T12:28:19.706Z,12.72
2023-05-02T12:30:48.751Z,12.30
2023-05-02T12:33:16.768Z,12.44
2023-05-02T12:35:43.564Z,12.20
2023-05-02T12:38:11.463Z,12.28
2023-05-02T12:40:40.032Z,12.16
2023-05-02T12:43:10.549Z,12.53
2023-05-02T12:45:37.575Z,12.38
2023-05-02T12:48:24.498Z,12.31
2023-05-02T12:50:52.114Z,11.77
2023-05-02T12:53:38.660Z,12.19
2023-05-02T12:56:05.625Z,12.52
2023-05-02T12:58:41.631Z,12.20
2023-05-02T13:01:10.451Z,12.49
2023-05-02T13:03:37.259Z,12.55
2023-05-02T13:06:03.773Z,11.99
2023-05-02T13:08:30.354Z,12.06
2023-05-02T13:10:56.788Z,11.61
2023-05-02T13:13:23.289Z,12.06
2023-05-02T13:15:49.734Z,12.62
2023-05-02T13:18:16.300Z,12.20
2023-05-02T13:20:42.794Z,12.59
2023-05-02T13:23:09.222Z,12.43
2023-05-02T13:25:35.740Z,12.29
2023-05-02T13:28:02.284Z,11.94
2023-05-02T13:30:28.939Z,12.24
2023-05-02T13:32:58.335Z,12.53
2023-05-02T13:35:24.976Z,12.38
2023-05-02T13:37:54.506Z,12.47
2023-05-02T13:40:21.035Z,12.25
2023-05-02T13:42:47.489Z,12.62
2023-05-02T13:45:14.619Z,12.67
2023-05-02T13:47:41.669Z,12.20
2023-05-02T13:50:08.783Z,12.43
2023-05-02T13:52:35.230Z,11.99
2023-05-02T13:55:01.737Z,12.12
2023-05-02T13:57:28.228Z,11.92
2023-05-02T13:59:54.676Z,11.61
2023-05-02T14:02:21.333Z,11.56
2023-05-02T14:04:47.796Z,11.74
2023-05-02T14:07:14.270Z,11.90
2023-05-02T14:09:40.803Z,12.06
2023-05-02T14:12:07.318Z,11.79
2023-05-02T14:14:36.053Z,11.31
2023-05-02T14:17:02.756Z,10.85
2023-05-02T14:19:29.228Z,11.28
2023-05-02T14:21:55.737Z,11.10
2023-05-02T14:24:22.194Z,11.21
2023-05-02T14:26:48.676Z,11.33
2023-05-02T14:29:15.261Z,11.07
2023-05-02T14:31:41.711Z,11.21
2023-05-02T14:34:09.018Z,11.40
2023-05-02T14:36:35.641Z,11.36
2023-05-02T14:39:02.145Z,11.43
2023-05-02T14:41:28.682Z,11.00
2023-05-02T14:43:55.263Z,11.26
2023-05-02T14:46:21.899Z,10.97
2023-05-02T14:48:48.403Z,10.74
2023-05-02T14:51:15.346Z,11.10
2023-05-02T14:53:41.988Z,11.09
2023-05-02T14:56:14.089Z,10.99
2023-05-02T14:58:40.572Z,10.74
2023-05-02T15:01:07.084Z,10.42
2023-05-02T15:03:49.014Z,10.46
2023-05-02T15:06:22.935Z,10.77
2023-05-02T15:08:50.330Z,10.86
2023-05-02T15:11:16.778Z,11.08
2023-05-02T15:13:43.340Z,11.20
2023-05-02T15:16:10.768Z,11.13
2023-05-02T15:18:45.258Z,11.11
2023-05-02T15:21:12.013Z,11.57
2023-05-02T15:23:38.568Z,11.58
2023-05-02T15:26:05.206Z,11.87
2023-05-02T15:28:31.842Z,11.21
2023-05-02T15:30:58.334Z,11.45
2023-05-02T15:33:24.917Z,11.54
2023-05-02T15:35:59.540Z,11.99
2023-05-02T15:38:26.538Z,11.69
2023-05-02T15:40:56.952Z,12.06
2023-05-02T15:43:24.159Z,12.25
2023-05-02T15:45:55.361Z,12.35
2023-05-02T15:48:22.709Z,11.95
2023-05-02T15:50:49.684Z,12.35
2023-05-02T15:53:16.913Z,12.41
2023-05-02T15:55:45.861Z,12.74
2023-05-02T15:58:13.012Z,12.76
2023-05-02T16:00:39.446Z,12.93
2023-05-02T16:03:06.437Z,13.12
2023-05-02T16:05:33.506Z,12.95
2023-05-02T16:08:00.122Z,12.88
2023-05-02T16:10:27.232Z,12.69
2023-05-02T16:12:53.995Z,12.82
2023-05-02T16:15:21.165Z,13.09
2023-05-02T16:17:49.067Z,12.38
2023-05-02T16:20:16.869Z,11.82
2023-05-02T16:22:47.226Z,12.05
2023-05-02T16:25:14.532Z,11.52
2023-05-02T16:27:41.031Z,11.38
2023-05-02T16:30:08.846Z,11.81
2023-05-02T16:32:37.441Z,11.76
2023-05-02T16:35:08.357Z,12.13
2023-05-02T16:37:35.355Z,12.03
2023-05-02T16:40:05.649Z,11.84
2023-05-02T16:42:32.758Z,11.83
2023-05-02T16:44:59.438Z,12.12
2023-05-02T16:47:26.938Z,12.21
2023-05-02T16:49:54.821Z,12.49
2023-05-02T16:52:21.589Z,12.48
2023-05-02T16:54:48.559Z,12.54
2023-05-02T16:57:19.769Z,12.31
2023-05-02T16:59:51.510Z,12.22
2023-05-02T17:02:20.258Z,12.33
2023-05-02T17:04:46.835Z,11.94
2023-05-02T17:07:13.316Z,11.72
2023-05-02T17:09:40.929Z,11.68
2023-05-02T17:12:10.986Z,12.03
2023-05-02T17:14:39.573Z,11.82
2023-05-02T17:17:06.121Z,11.73
2023-05-02T17:19:32.623Z,11.80
2023-05-02T17:21:59.401Z,11.98
2023-05-02T17:24:25.884Z,11.49
2023-05-02T17:26:59.046Z,11.39
2023-05-02T17:29:25.758Z,11.66
2023-05-02T17:31:52.242Z,11.64
2023-05-02T17:34:18.749Z,11.96
2023-05-02T17:36:46.345Z,11.96
2023-05-02T17:39:13.493Z,11.57
2023-05-02T17:41:42.431Z,11.65
2023-05-02T17:44:08.904Z,11.90
2023-05-02T17:46:35.646Z,11.95
2023-05-02T17:49:02.172Z,11.89
2023-05-02T17:51:31.126Z,11.81
2023-05-02T17:53:57.612Z,11.83
2023-05-02T17:56:24.172Z,11.59
2023-05-02T17:58:50.907Z,11.53
2023-05-02T18:01:17.670Z,11.90
2023-05-02T18:03:44.667Z,11.57
2023-05-02T18:06:18.284Z,11.45
2023-05-02T18:08:45.313Z,11.67
2023-05-02T18:11:19.004Z,11.66
2023-05-02T18:13:46.116Z,11.49
2023-05-02T18:16:14.181Z,11.37
2023-05-02T18:18:41.386Z,11.48
2023-05-02T18:21:09.385Z,11.58
2023-05-02T18:23:38.575Z,11.59
2023-05-02T18:26:11.844Z,11.64
2023-05-02T18:28:38.370Z,11.66
2023-05-02T18:31:05.122Z,11.61
2023-05-02T18:33:31.645Z,11.72
2023-05-02T18:35:58.180Z,11.33
2023-05-02T18:38:29.536Z,11.27
2023-05-02T18:40:56.128Z,11.25
2023-05-02T18:43:22.661Z,11.26
2023-05-02T18:45:49.274Z,11.38
2023-05-02T18:48:15.879Z,11.37
2023-05-02T18:50:42.522Z,11.39
2023-05-02T18:53:09.014Z,11.44
2023-05-02T18:55:35.600Z,11.37
2023-05-02T18:58:02.112Z,11.46
2023-05-02T19:00:36.902Z,11.34
2023-05-02T19:03:03.893Z,11.42
2023-05-02T19:05:30.489Z,11.65
2023-05-02T19:07:57.142Z,11.30
2023-05-02T19:10:23.732Z,11.62
2023-05-02T19:12:50.474Z,11.44
2023-05-02T19:15:16.995Z,11.52
2023-05-02T19:17:44.509Z,11.29
2023-05-02T19:20:11.633Z,11.37
2023-05-02T19:22:38.363Z,11.33
2023-05-02T19:25:05.036Z,11.58
2023-05-02T19:27:31.679Z,10.92
2023-05-02T19:29:58.773Z,10.69
2023-05-02T19:32:25.423Z,11.08
2023-05-02T19:34:52.088Z,11.19
2023-05-02T19:37:18.642Z,11.21
2023-05-02T19:39:50.961Z,10.87
2023-05-02T19:42:17.517Z,10.88
2023-05-02T19:44:44.066Z,11.05
2023-05-02T19:47:10.675Z,11.21
2023-05-02T19:49:37.247Z,11.26
2023-05-02T19:52:03.925Z,11.25
2023-05-02T19:54:31.097Z,11.28
2023-05-02T19:57:03.943Z,11.03
2023-05-02T19:59:30.545Z,11.12
2023-05-02T20:01:56.991Z,11.23
2023-05-02T20:04:25.131Z,10.83
2023-05-02T20:06:54.683Z,11.00
2023-05-02T20:09:21.291Z,10.85
2023-05-02T20:11:47.846Z,11.14
2023-05-02T20:14:15.661Z,10.87
2023-05-02T20:16:46.462Z,11.02
2023-05-02T20:19:14.249Z,11.04
2023-05-02T20:21:41.307Z,10.96
2023-05-02T20:24:08.126Z,10.65
2023-05-02T20:26:34.556Z,10.98
2023-05-02T20:29:01.074Z,10.69
2023-05-02T20:31:27.627Z,10.86
2023-05-02T20:33:54.194Z,10.75
2023-05-02T20:36:20.925Z,10.80
2023-05-02T20:38:47.934Z,10.85
2023-05-02T20:41:14.736Z,10.37
2023-05-02T20:43:41.573Z,10.39
2023-05-02T20:46:12.439Z,10.26
2023-05-02T20:48:39.007Z,10.40
2023-05-02T20:51:05.461Z,10.46
2023-05-02T20:53:31.938Z,10.54
2023-05-02T20:55:58.377Z,10.58
2023-05-02T20:58:24.830Z,10.36
2023-05-02T21:00:52.743Z,10.59
2023-05-02T21:03:19.737Z,10.68
2023-05-02T21:05:50.969Z,10.34
2023-05-02T21:08:17.705Z,10.60
2023-05-02T21:10:44.165Z,10.67
2023-05-02T21:13:10.667Z,10.70
2023-05-02T21:15:37.150Z,10.43
2023-05-02T21:18:04.749Z,10.53
2023-05-02T21:20:31.197Z,10.50
2023-05-02T21:22:57.652Z,10.47
2023-05-02T21:25:24.224Z,10.45
2023-05-02T21:27:53.907Z,10.39
2023-05-02T21:30:20.387Z,10.60
2023-05-02T21:32:46.948Z,10.60
2023-05-02T21:35:13.412Z,10.59
2023-05-02T21:37:39.972Z,10.17
2023-05-02T21:40:07.433Z,10.44
2023-05-02T21:42:34.437Z,10.54
2023-05-02T21:45:01.611Z,10.60
2023-05-02T21:47:28.090Z,10.53
2023-05-02T21:49:56.393Z,10.74
2023-05-02T21:52:23.036Z,10.66
2023-05-02T21:54:50.104Z,10.64
2023-05-02T21:57:16.593Z,10.54
2023-05-02T21:59:43.214Z,10.52
2023-05-02T22:02:09.930Z,10.19
2023-05-02T22:04:36.550Z,10.60
2023-05-02T22:07:03.147Z,10.33
2023-05-02T22:09:32.089Z,10.48
2023-05-02T22:11:59.805Z,10.45
2023-05-02T22:14:33.827Z,10.57
2023-05-02T22:17:08.259Z,10.59
2023-05-02T22:19:34.726Z,10.38
2023-05-02T22:22:05.346Z,10.62
2023-05-02T22:24:31.791Z,10.57
2023-05-02T22:26:58.268Z,10.53
2023-05-02T22:29:24.739Z,10.24
2023-05-02T22:31:52.276Z,10.50
2023-05-02T22:34:19.104Z,10.48
2023-05-02T22:36:46.009Z,10.38
2023-05-02T22:39:14.443Z,10.28
2023-05-02T22:41:42.585Z,10.45
2023-05-02T22:44:09.074Z,10.36
2023-05-02T22:46:38.191Z,10.43
2023-05-02T22:49:06.285Z,10.42
2023-05-02T22:51:33.365Z,10.39
2023-05-02T22:53:59.905Z,10.38
2023-05-02T22:56:27.223Z,10.37
2023-05-02T22:58:53.717Z,10.27
2023-05-02T23:01:20.332Z,10.28
2023-05-02T23:03:46.946Z,10.37
2023-05-02T23:06:13.954Z,10.50
2023-05-02T23:08:40.531Z,10.23
2023-05-02T23:11:06.952Z,10.26
2023-05-02T23:13:33.397Z,10.39
2023-05-02T23:15:59.945Z,9.98
2023-05-02T23:18:26.508Z,10.16
2023-05-02T23:20:52.964Z,10.31
2023-05-02T23:23:19.410Z,10.22
2023-05-02T23:25:45.885Z,10.16
2023-05-02T23:28:12.359Z,10.21
2023-05-02T23:30:40.282Z,10.29
2023-05-02T23:33:07.028Z,10.17
2023-05-02T23:35:33.871Z,10.28
2023-05-02T23:38:01.023Z,10.09
2023-05-02T23:40:28.211Z,10.10
2023-05-02T23:42:54.666Z,10.12
2023-05-02T23:45:21.262Z,10.17
2023-05-02T23:47:47.805Z,10.18
2023-05-02T23:50:14.397Z,10.32
2023-05-02T23:52:40.870Z,10.33
2023-05-02T23:55:10.693Z,10.05
2023-05-02T23:57:37.546Z,10.02
